Time;durP1;ratioP1;P1;durP2;ratioP2;P2;SDS_P1;SDS_P2;PMS_P1;PMS_P2;Temp;Humidity;BMP_temperature;BMP_pressure;BME280_temperature;BME280_humidity;BME280_pressure;Samples;Min_cycle;Max_cycle;Signal;HPM_P1;HPM_P2
2022/07/07 00:00:36;;;;;;;9.63;5.93;;;;;;;17.49;80.85;102016.06;5071579;28;20060;-70
2022/07/07 00:03:02;;;;;;;9.63;6.15;;;;;;;17.47;80.45;102008.22;5074287;28;20054;-70
2022/07/07 00:05:27;;;;;;;11.77;6.45;;;;;;;17.48;80.31;101998.53;5072632;28;20021;-70
2022/07/07 00:07:52;;;;;;;7.57;6.07;;;;;;;17.50;80.48;101996.72;5073044;28;20078;-70
2022/07/07 00:10:18;;;;;;;8.02;5.85;;;;;;;17.52;80.74;102000.16;5073230;28;20021;-70
2022/07/07 00:12:43;;;;;;;8.43;6.82;;;;;;;17.49;79.00;101989.69;5073921;28;20480;-70
2022/07/07 00:15:09;;;;;;;7.38;6.18;;;;;;;17.48;80.14;102001.16;5071984;28;20078;-70
2022/07/07 00:17:34;;;;;;;6.95;5.90;;;;;;;17.46;80.81;102001.25;5073793;28;20026;-70
2022/07/07 00:20:00;;;;;;;9.18;6.20;;;;;;;17.45;80.14;101994.22;5072420;28;20047;-70
2022/07/07 00:22:25;;;;;;;10.77;6.45;;;;;;;17.46;80.01;101980.16;5072476;28;20016;-70
2022/07/07 00:24:50;;;;;;;7.70;5.88;;;;;;;17.43;80.76;101980.25;5070815;28;20033;-69
2022/07/07 00:27:16;;;;;;;8.05;6.25;;;;;;;17.46;80.72;101989.81;5073717;28;20052;-70
2022/07/07 00:29:43;;;;;;;8.55;5.97;;;;;;;17.44;80.38;101981.09;5067102;28;20033;-70
2022/07/07 00:32:09;;;;;;;8.43;5.45;;;;;;;17.46;80.31;101969.59;5069637;28;20107;-69
2022/07/07 00:34:35;;;;;;;7.95;5.55;;;;;;;17.41;79.92;101957.47;5072232;28;20021;-70
2022/07/07 00:37:01;;;;;;;9.65;5.63;;;;;;;17.41;80.40;101950.44;5072277;28;20081;-70
2022/07/07 00:39:26;;;;;;;9.20;5.43;;;;;;;17.47;80.18;101957.28;5073747;28;20550;-70
2022/07/07 00:41:52;;;;;;;7.90;5.55;;;;;;;17.44;79.46;101952.97;5058534;28;20128;-70
2022/07/07 00:44:17;;;;;;;9.20;5.22;;;;;;;17.45;80.73;101959.94;5069292;28;20068;-70
2022/07/07 00:46:49;;;;;;;9.85;4.93;;;;;;;17.44;80.04;101950.31;5073389;28;20040;-70
2022/07/07 00:49:17;;;;;;;8.13;4.97;;;;;;;17.47;80.89;101952.84;5072907;28;20025;-70
2022/07/07 00:51:43;;;;;;;7.30;4.72;;;;;;;17.47;81.07;101949.38;5065900;28;20029;-70
2022/07/07 00:54:10;;;;;;;7.55;5.13;;;;;;;17.45;80.86;101943.28;5065792;28;20109;-70
2022/07/07 00:56:36;;;;;;;8.93;4.75;;;;;;;17.46;81.09;101942.34;5068379;28;20024;-70
2022/07/07 00:59:06;;;;;;;9.43;5.20;;;;;;;17.47;80.77;101939.69;5071619;28;20040;-70
2022/07/07 01:01:32;;;;;;;7.38;4.50;;;;;;;17.49;81.31;101942.25;5070865;28;20020;-69
2022/07/07 01:03:58;;;;;;;7.05;4.68;;;;;;;17.45;81.05;101938.84;5071787;28;20021;-70
2022/07/07 01:06:24;;;;;;;6.20;4.97;;;;;;;17.46;81.05;101934.44;5073356;28;20041;-69
2022/07/07 01:08:52;;;;;;;7.95;5.07;;;;;;;17.43;81.12;101945.09;5072529;28;20082;-70
2022/07/07 01:11:17;;;;;;;6.55;4.45;;;;;;;17.44;80.58;101949.47;5070893;28;20017;-70
2022/07/07 01:13:42;;;;;;;7.05;5.07;;;;;;;17.43;81.13;101947.72;5072699;28;20112;-70
2022/07/07 01:16:08;;;;;;;7.03;5.07;;;;;;;17.42;81.09;101938.97;5070465;28;20031;-70
2022/07/07 01:18:33;;;;;;;5.95;4.60;;;;;;;17.39;81.79;101940.84;5072084;28;20064;-70
2022/07/07 01:21:02;;;;;;;6.65;4.68;;;;;;;17.36;81.82;101935.69;5072866;28;20480;-70
2022/07/07 01:23:27;;;;;;;6.35;4.75;;;;;;;17.39;81.35;101931.16;5072707;28;20035;-69
2022/07/07 01:25:52;;;;;;;10.77;4.72;;;;;;;17.32;81.36;101929.66;5070081;28;20021;-70
2022/07/07 01:28:17;;;;;;;7.22;4.97;;;;;;;17.38;81.44;101934.72;5072851;28;20046;-69
2022/07/07 01:30:43;;;;;;;7.13;4.78;;;;;;;17.39;81.73;101946.13;5071278;28;20017;-70
2022/07/07 01:33:08;;;;;;;6.45;4.10;;;;;;;17.39;82.15;101938.22;5072323;28;20354;-70
2022/07/07 01:35:33;;;;;;;5.65;4.18;;;;;;;17.38;82.01;101925.97;5070460;28;20021;-70
2022/07/07 01:37:59;;;;;;;6.32;4.70;;;;;;;17.38;81.15;101925.97;5067224;28;20043;-70
2022/07/07 01:40:24;;;;;;;7.13;4.38;;;;;;;17.38;81.54;101918.03;5067143;28;20029;-70
2022/07/07 01:42:49;;;;;;;5.25;3.97;;;;;;;17.39;81.93;101919.75;5071918;28;20027;-70
2022/07/07 01:45:15;;;;;;;5.57;4.70;;;;;;;17.38;80.92;101915.41;5059940;28;20075;-70
2022/07/07 01:47:40;;;;;;;5.15;3.95;;;;;;;17.41;82.12;101912.69;5070099;28;20032;-70
2022/07/07 01:50:06;;;;;;;7.43;4.88;;;;;;;17.40;81.68;101908.31;5070213;28;20032;-70
2022/07/07 01:52:31;;;;;;;5.53;4.25;;;;;;;17.36;81.62;101910.19;5061235;28;20025;-70
2022/07/07 01:54:56;;;;;;;6.47;4.22;;;;;;;17.35;81.80;101897.06;5070489;28;20352;-70
2022/07/07 01:57:21;;;;;;;5.82;4.47;;;;;;;17.38;82.08;101908.34;5072136;28;20055;-70
2022/07/07 01:59:47;;;;;;;6.95;4.10;;;;;;;17.39;82.34;101904.81;5062952;28;20441;-70
2022/07/07 02:02:13;;;;;;;6.45;4.05;;;;;;;17.39;83.18;101907.44;5071662;28;20021;-70
2022/07/07 02:04:38;;;;;;;6.82;4.70;;;;;;;17.40;83.01;101910.97;5071038;28;20032;-70
2022/07/07 02:07:04;;;;;;;8.13;4.40;;;;;;;17.40;83.15;101905.69;5071223;28;20021;-70
2022/07/07 02:09:29;;;;;;;5.63;4.22;;;;;;;17.42;82.68;101909.97;5070107;28;20035;-70
2022/07/07 02:11:55;;;;;;;6.13;4.43;;;;;;;17.43;83.25;101908.19;5070236;28;20028;-70
2022/07/07 02:14:20;;;;;;;7.78;5.15;;;;;;;17.42;82.39;101904.69;5067209;28;20099;-70
2022/07/07 02:16:45;;;;;;;8.40;4.13;;;;;;;17.40;83.62;101911.81;5071618;28;20066;-70
2022/07/07 02:19:11;;;;;;;6.43;4.40;;;;;;;17.38;83.83;101907.50;5069887;28;20052;-70
2022/07/07 02:21:36;;;;;;;8.20;4.60;;;;;;;17.37;84.54;101904.00;5069464;28;20032;-70
2022/07/07 02:24:03;;;;;;;7.40;4.70;;;;;;;17.37;83.42;101901.38;5070993;28;20106;-70
2022/07/07 02:26:29;;;;;;;7.03;4.40;;;;;;;17.37;84.29;101904.00;5071733;28;20020;-70
2022/07/07 02:28:54;;;;;;;8.05;4.38;;;;;;;17.37;84.00;101905.78;5068755;28;20021;-70
2022/07/07 02:31:20;;;;;;;8.15;4.72;;;;;;;17.37;84.17;101901.38;5070943;28;20388;-70
2022/07/07 02:33:45;;;;;;;8.15;4.63;;;;;;;17.37;84.39;101898.75;5070947;28;20029;-70
2022/07/07 02:36:11;;;;;;;6.75;4.13;;;;;;;17.37;85.05;101900.53;5070509;28;20115;-70
2022/07/07 02:38:37;;;;;;;6.85;4.00;;;;;;;17.32;86.73;101900.66;5071373;28;20353;-70
2022/07/07 02:41:04;;;;;;;7.15;4.32;;;;;;;17.11;87.73;101886.47;5069299;28;20032;-70
2022/07/07 02:43:29;;;;;;;6.57;3.95;;;;;;;16.97;89.31;101881.66;5071599;28;20067;-70
2022/07/07 02:45:55;;;;;;;7.65;4.03;;;;;;;16.89;90.25;101894.22;5069337;28;20051;-70
2022/07/07 02:48:22;;;;;;;7.28;4.88;;;;;;;16.85;91.50;101898.72;5070517;28;20032;-70
2022/07/07 02:50:48;;;;;;;6.45;4.20;;;;;;;16.85;91.42;101888.19;5068600;28;20032;-70
2022/07/07 02:53:13;;;;;;;6.57;4.20;;;;;;;16.91;90.93;101892.41;5070700;28;20037;-70
2022/07/07 02:55:40;;;;;;;6.65;4.55;;;;;;;16.93;90.99;101884.44;5071171;28;20100;-70
2022/07/07 02:58:07;;;;;;;8.10;4.18;;;;;;;16.97;91.62;101886.94;5069346;28;20130;-70
2022/07/07 03:00:33;;;;;;;7.07;4.38;;;;;;;17.01;91.19;101898.22;5055843;28;20047;-70
2022/07/07 03:03:00;;;;;;;5.68;4.57;;;;;;;17.02;89.94;101900.81;5051802;28;20025;-70
2022/07/07 03:05:25;;;;;;;9.10;4.25;;;;;;;17.05;90.25;101894.56;5059142;28;20021;-70
2022/07/07 03:07:51;;;;;;;8.23;4.07;;;;;;;17.11;90.49;101896.16;5072831;28;20087;-70
2022/07/07 03:10:16;;;;;;;7.35;4.13;;;;;;;17.03;90.21;101894.59;5067944;28;20469;-70
2022/07/07 03:12:42;;;;;;;9.75;3.92;;;;;;;16.98;91.03;101896.56;5075354;28;20484;-70
2022/07/07 03:15:08;;;;;;;7.85;3.92;;;;;;;16.97;93.26;101897.47;5075020;28;20032;-70
2022/07/07 03:17:34;;;;;;;6.03;3.97;;;;;;;16.91;93.03;101904.72;5066715;28;20032;-70
2022/07/07 03:19:59;;;;;;;9.85;4.68;;;;;;;16.88;93.83;101902.19;5065526;28;20476;-70
2022/07/07 03:22:25;;;;;;;6.95;4.65;;;;;;;16.79;95.76;101903.34;5075013;28;20028;-70
2022/07/07 03:24:50;;;;;;;9.73;4.25;;;;;;;16.60;98.89;101913.56;5074128;28;20142;-70
2022/07/07 03:27:15;;;;;;;7.25;4.40;;;;;;;16.46;100.00;101911.38;5075041;28;20039;-71
2022/07/07 03:29:41;;;;;;;6.03;4.45;;;;;;;16.35;100.00;101911.72;5072561;28;20393;-70
2022/07/07 03:32:06;;;;;;;5.82;4.20;;;;;;;16.23;100.00;101904.19;5074577;28;20036;-70
2022/07/07 03:34:32;;;;;;;4.78;3.63;;;;;;;16.17;100.00;101914.88;5069356;28;20024;-71
2022/07/07 03:36:57;;;;;;;6.75;3.63;;;;;;;16.13;100.00;101924.63;5066954;28;20492;-71
2022/07/07 03:39:23;;;;;;;5.10;3.83;;;;;;;15.91;100.00;101928.78;5072355;28;20025;-71
2022/07/07 03:41:48;;;;;;;5.30;3.60;;;;;;;15.81;100.00;101928.19;5064216;28;20535;-71
2022/07/07 03:44:13;;;;;;;4.40;3.50;;;;;;;15.73;100.00;101924.03;5067035;28;20078;-71
2022/07/07 03:46:39;;;;;;;6.25;3.80;;;;;;;15.68;100.00;101922.41;5073279;28;20473;-71
2022/07/07 03:49:04;;;;;;;4.97;3.90;;;;;;;15.62;100.00;101921.69;5074446;28;20033;-71
2022/07/07 03:51:29;;;;;;;6.70;4.40;;;;;;;15.61;100.00;101918.19;5073659;28;20021;-71
2022/07/07 03:53:55;;;;;;;5.45;4.57;;;;;;;15.59;100.00;101917.34;5069361;28;20498;-72
2022/07/07 03:56:20;;;;;;;5.05;4.03;;;;;;;15.51;100.00;101918.50;5070517;28;20032;-71
2022/07/07 03:58:45;;;;;;;6.22;4.70;;;;;;;15.51;100.00;101923.75;5073733;28;20040;-71
2022/07/07 04:01:10;;;;;;;6.50;5.30;;;;;;;15.52;100.00;101920.22;5074160;28;20465;-71
2022/07/07 04:03:37;;;;;;;5.40;4.90;;;;;;;15.51;100.00;101918.50;5073042;28;20021;-71
2022/07/07 04:06:03;;;;;;;5.57;5.07;;;;;;;15.53;100.00;101912.28;5072262;28;20100;-71
2022/07/07 04:08:28;;;;;;;5.82;4.95;;;;;;;15.51;100.00;101921.97;5069476;28;20100;-71
2022/07/07 04:10:54;;;;;;;6.53;5.43;;;;;;;15.48;100.00;101908.06;5063808;28;20038;-71
2022/07/07 04:13:20;;;;;;;7.43;5.40;;;;;;;15.48;100.00;101902.81;5071844;28;20059;-71
2022/07/07 04:15:45;;;;;;;8.98;5.65;;;;;;;15.51;100.00;101906.22;5072015;28;20036;-71
2022/07/07 04:18:11;;;;;;;7.63;5.80;;;;;;;15.52;100.00;101893.94;5074383;28;20020;-71
2022/07/07 04:20:36;;;;;;;6.82;6.03;;;;;;;15.49;100.00;101886.97;5073294;28;20353;-71
2022/07/07 04:23:01;;;;;;;13.10;6.53;;;;;;;15.56;100.00;101898.19;5072164;28;20078;-71
2022/07/07 04:25:27;;;;;;;6.97;6.28;;;;;;;15.56;100.00;101891.16;5072086;28;20047;-71
2022/07/07 04:27:52;;;;;;;9.63;6.68;;;;;;;15.54;100.00;101898.25;5073228;28;20032;-71
2022/07/07 04:30:17;;;;;;;7.68;5.75;;;;;;;15.53;100.00;101893.00;5074101;28;20555;-71
2022/07/07 04:32:42;;;;;;;8.13;6.32;;;;;;;15.52;100.00;101897.41;5071422;28;20090;-71
2022/07/07 04:35:09;;;;;;;6.38;5.63;;;;;;;15.60;100.00;101894.59;5071921;28;20043;-71
2022/07/07 04:37:34;;;;;;;6.18;5.50;;;;;;;15.56;100.00;101895.56;5070395;28;20036;-71
2022/07/07 04:39:59;;;;;;;6.82;5.55;;;;;;;15.53;100.00;101895.63;5073237;28;20032;-71
2022/07/07 04:42:25;;;;;;;7.13;5.15;;;;;;;15.49;100.00;101905.38;5073153;28;20023;-71
2022/07/07 04:44:50;;;;;;;6.30;4.97;;;;;;;15.54;100.00;101914.00;5072313;28;20056;-71
2022/07/07 04:47:16;;;;;;;6.32;5.43;;;;;;;15.53;100.00;101920.19;5072362;28;20107;-71
2022/07/07 04:49:41;;;;;;;7.18;5.43;;;;;;;15.54;100.00;101929.78;5072902;28;20376;-71
2022/07/07 04:52:07;;;;;;;5.90;4.35;;;;;;;15.50;100.00;101935.13;5072219;28;20028;-71
2022/07/07 04:54:32;;;;;;;5.53;4.13;;;;;;;15.42;100.00;101935.34;5071129;28;20054;-71
2022/07/07 04:56:57;;;;;;;9.45;4.68;;;;;;;15.44;100.00;101938.81;5069981;28;20036;-71
2022/07/07 04:59:23;;;;;;;5.50;4.00;;;;;;;15.44;100.00;101939.66;5072762;28;20020;-71
2022/07/07 05:01:48;;;;;;;6.20;3.38;;;;;;;15.40;100.00;101929.25;5072682;28;20032;-71
2022/07/07 05:04:13;;;;;;;8.18;3.60;;;;;;;15.45;100.00;101932.66;5069688;28;20187;-71
2022/07/07 05:06:39;;;;;;;7.00;3.80;;;;;;;15.53;100.00;101937.69;5072362;28;20039;-71
2022/07/07 05:09:04;;;;;;;6.30;3.85;;;;;;;15.58;100.00;101944.56;5061761;28;20021;-71
2022/07/07 05:11:29;;;;;;;5.53;3.50;;;;;;;15.65;100.00;101948.75;5065976;28;20432;-71
2022/07/07 05:13:55;;;;;;;7.18;3.30;;;;;;;15.70;100.00;101953.06;5071815;28;20033;-71
2022/07/07 05:16:20;;;;;;;5.30;2.67;;;;;;;15.65;100.00;101951.38;5072990;28;20488;-71
2022/07/07 05:18:45;;;;;;;6.78;2.40;;;;;;;15.59;100.00;101962.03;5069734;28;20337;-71
2022/07/07 05:21:11;;;;;;;6.82;2.70;;;;;;;15.60;100.00;101961.16;5073181;28;20116;-71
2022/07/07 05:23:36;;;;;;;3.67;2.40;;;;;;;15.64;100.00;101954.91;5071716;28;20040;-71
2022/07/07 05:26:01;;;;;;;5.25;2.63;;;;;;;15.64;100.00;101970.69;5071150;28;20469;-71
2022/07/07 05:28:27;;;;;;;4.80;2.50;;;;;;;15.64;100.00;101973.31;5062396;28;20025;-71
2022/07/07 05:30:52;;;;;;;7.47;2.22;;;;;;;15.61;100.00;101962.00;5070821;28;20017;-71
2022/07/07 05:33:18;;;;;;;5.45;2.13;;;;;;;15.68;100.00;101974.97;5072832;28;20452;-71
2022/07/07 05:35:43;;;;;;;4.85;2.10;;;;;;;15.62;100.00;101969.84;5070632;28;20489;-71
2022/07/07 05:38:08;;;;;;;7.82;2.20;;;;;;;15.72;100.00;101981.00;5070113;28;20024;-71
2022/07/07 05:40:34;;;;;;;4.50;2.40;;;;;;;15.83;100.00;101975.50;5072117;28;20081;-71
2022/07/07 05:42:59;;;;;;;5.00;2.00;;;;;;;15.93;100.00;101984.00;5072148;28;20499;-71
2022/07/07 05:45:24;;;;;;;4.28;2.53;;;;;;;15.98;100.00;101971.56;5071191;28;20032;-71
2022/07/07 05:47:50;;;;;;;5.97;2.20;;;;;;;15.95;100.00;101974.28;5070925;28;20039;-71
2022/07/07 05:50:15;;;;;;;7.03;2.10;;;;;;;16.00;100.00;101985.53;5072391;28;20025;-71
2022/07/07 05:52:40;;;;;;;7.47;2.47;;;;;;;16.02;100.00;101988.97;5070293;28;20081;-71
2022/07/07 05:55:07;;;;;;;5.10;2.22;;;;;;;16.11;100.00;101999.22;5069538;28;20032;-71
2022/07/07 05:57:32;;;;;;;5.75;2.03;;;;;;;16.15;100.00;102003.50;5066356;28;20041;-71
2022/07/07 05:59:58;;;;;;;5.65;1.85;;;;;;;16.16;100.00;102002.63;5071545;28;20043;-71
2022/07/07 06:02:23;;;;;;;5.50;1.92;;;;;;;16.13;100.00;102006.19;5071584;28;20107;-71
2022/07/07 06:04:48;;;;;;;6.78;2.10;;;;;;;16.20;100.00;102008.66;5071259;28;20058;-71
2022/07/07 06:07:14;;;;;;;5.03;1.83;;;;;;;16.13;100.00;102019.34;5069098;28;20058;-71
2022/07/07 06:09:39;;;;;;;5.57;1.73;;;;;;;15.97;100.00;102025.94;5055563;28;20104;-71
2022/07/07 06:12:05;;;;;;;5.53;2.17;;;;;;;15.86;100.00;102015.72;5069498;28;20464;-71
2022/07/07 06:14:30;;;;;;;6.10;2.13;;;;;;;15.81;100.00;102038.63;5064078;28;20032;-71
2022/07/07 06:16:56;;;;;;;7.80;2.60;;;;;;;15.79;100.00;102035.16;5069592;28;20021;-71
2022/07/07 06:19:21;;;;;;;8.18;2.20;;;;;;;15.90;100.00;102051.53;5071881;28;20487;-71
2022/07/07 06:21:46;;;;;;;5.75;2.15;;;;;;;15.92;100.00;102046.22;5071268;28;20029;-71
2022/07/07 06:24:12;;;;;;;10.80;2.50;;;;;;;15.93;100.00;102058.47;5069926;28;20025;-71
2022/07/07 06:26:37;;;;;;;8.52;2.22;;;;;;;15.94;100.00;102061.97;5070767;28;20465;-71
2022/07/07 06:29:03;;;;;;;7.88;2.22;;;;;;;15.89;100.00;102067.34;5071147;28;20095;-72
2022/07/07 06:31:29;;;;;;;7.13;1.80;;;;;;;15.76;100.00;102064.19;5072022;28;20031;-71
2022/07/07 06:33:54;;;;;;;7.38;1.92;;;;;;;15.78;100.00;102059.72;5069117;28;20127;-71
2022/07/07 06:36:19;;;;;;;11.65;2.00;;;;;;;15.77;100.00;102067.66;5070642;28;20025;-71
2022/07/07 06:38:45;;;;;;;6.70;1.73;;;;;;;15.77;100.00;102072.94;5069010;28;20036;-71
2022/07/07 06:41:10;;;;;;;9.38;2.42;;;;;;;15.75;100.00;102062.44;5069070;28;20391;-71
2022/07/07 06:43:35;;;;;;;10.68;2.17;;;;;;;15.80;100.00;102068.44;5070212;28;20044;-73
2022/07/07 06:46:00;;;;;;;6.07;1.95;;;;;;;15.85;100.00;102079.69;5071315;28;20012;-70
2022/07/07 06:48:26;;;;;;;9.18;2.25;;;;;;;15.89;100.00;102080.47;5069369;28;20395;-71
2022/07/07 06:50:51;;;;;;;9.50;2.53;;;;;;;16.00;100.00;102096.88;5071048;28;20035;-71
2022/07/07 06:53:16;;;;;;;12.40;2.03;;;;;;;16.15;100.00;102096.47;5067712;28;20472;-71
2022/07/07 06:55:42;;;;;;;8.80;2.00;;;;;;;16.10;100.00;102106.22;5069260;28;20028;-71
2022/07/07 06:58:08;;;;;;;11.38;2.30;;;;;;;15.92;100.00;102111.97;5069421;28;20476;-71
2022/07/07 07:00:33;;;;;;;15.88;2.08;;;;;;;15.73;98.65;102113.31;5071461;28;20507;-71
2022/07/07 07:02:58;;;;;;;11.48;2.08;;;;;;;15.59;100.00;102111.88;5070699;28;20468;-71
2022/07/07 07:05:24;;;;;;;6.88;1.70;;;;;;;15.56;100.00;102104.06;5069262;28;20073;-71
2022/07/07 07:07:50;;;;;;;4.38;1.35;;;;;;;15.78;100.00;102112.31;5073350;28;20019;-71
2022/07/07 07:10:15;;;;;;;9.70;1.73;;;;;;;16.13;100.00;102106.16;5057070;28;20016;-71
2022/07/07 07:12:40;;;;;;;5.63;1.50;;;;;;;16.28;99.11;102085.59;5073811;28;20028;-71
2022/07/07 07:15:07;;;;;;;6.07;1.40;;;;;;;16.24;96.30;102105.00;5070812;28;20492;-71
2022/07/07 07:17:32;;;;;;;5.88;1.55;;;;;;;16.05;95.69;102105.47;5070765;28;20058;-71
2022/07/07 07:19:57;;;;;;;9.25;1.60;;;;;;;16.01;99.70;102103.84;5071279;28;20401;-71
2022/07/07 07:22:23;;;;;;;4.57;1.30;;;;;;;15.99;99.35;102110.94;5070215;28;20472;-71
2022/07/07 07:24:49;;;;;;;8.07;1.45;;;;;;;15.94;99.64;102112.78;5069248;28;20033;-71
2022/07/07 07:27:14;;;;;;;5.75;1.50;;;;;;;16.00;100.00;102114.41;5071443;28;20033;-71
2022/07/07 07:29:39;;;;;;;8.23;1.83;;;;;;;16.21;100.00;102118.22;5071026;28;20031;-71
2022/07/07 07:32:05;;;;;;;11.00;1.90;;;;;;;16.40;99.26;102114.19;5067644;28;20035;-71
2022/07/07 07:34:30;;;;;;;8.27;1.63;;;;;;;16.35;96.40;102121.38;5071269;28;20032;-71
2022/07/07 07:36:56;;;;;;;6.93;1.33;;;;;;;16.48;95.74;102128.03;5069049;28;20021;-71
2022/07/07 07:39:21;;;;;;;6.78;1.40;;;;;;;16.83;95.04;102132.31;5068704;28;20078;-71
2022/07/07 07:41:46;;;;;;;5.32;1.80;;;;;;;17.08;92.62;102137.72;5070543;28;20021;-72
2022/07/07 07:44:11;;;;;;;6.93;1.88;;;;;;;17.30;92.37;102135.31;5069853;28;20141;-71
2022/07/07 07:46:37;;;;;;;9.68;2.03;;;;;;;17.68;93.62;102127.06;5070966;28;20415;-72
2022/07/07 07:49:06;;;;;;;6.70;1.77;;;;;;;17.89;88.54;102136.09;5063376;28;20200;-72
2022/07/07 07:51:32;;;;;;;4.43;1.90;;;;;;;17.81;83.88;102146.88;5074097;28;20024;-71
2022/07/07 07:53:58;;;;;;;6.32;1.55;;;;;;;17.80;84.15;102139.03;5073060;28;20507;-71
2022/07/07 07:56:23;;;;;;;3.83;1.60;;;;;;;17.69;82.53;102140.22;5072618;28;20068;-72
2022/07/07 07:58:48;;;;;;;5.32;1.92;;;;;;;17.60;84.27;102160.75;5074797;28;20037;-71
2022/07/07 08:01:14;;;;;;;7.75;2.03;;;;;;;17.17;88.96;102164.72;5074486;28;20533;-71
2022/07/07 08:03:39;;;;;;;10.27;2.17;;;;;;;16.68;93.65;102188.03;5072094;28;20033;-71
2022/07/07 08:06:04;;;;;;;5.60;2.00;;;;;;;16.33;95.76;102174.03;5073483;28;20074;-71
2022/07/07 08:08:30;;;;;;;5.35;1.65;;;;;;;16.26;97.93;102171.63;5070379;28;20112;-72
2022/07/07 08:10:55;;;;;;;7.88;1.90;;;;;;;16.34;99.77;102161.72;5066672;28;20032;-71
2022/07/07 08:13:21;;;;;;;6.95;1.50;;;;;;;16.43;99.26;102172.03;5075856;28;20070;-71
2022/07/07 08:15:46;;;;;;;6.35;1.50;;;;;;;16.37;96.59;102167.78;5073122;28;20094;-71
2022/07/07 08:18:11;;;;;;;5.43;1.30;;;;;;;16.38;98.05;102171.28;5074106;28;20429;-71
2022/07/07 08:20:36;;;;;;;6.75;1.33;;;;;;;16.45;97.41;102185.13;5061991;28;20548;-71
2022/07/07 08:23:02;;;;;;;7.43;1.50;;;;;;;16.50;97.73;102178.00;5068947;28;20090;-71
2022/07/07 08:25:27;;;;;;;7.57;1.23;;;;;;;16.61;97.04;102178.53;5062174;28;20043;-71
2022/07/07 08:27:52;;;;;;;7.03;1.58;;;;;;;16.71;93.78;102187.94;5066156;28;20031;-71
2022/07/07 08:30:18;;;;;;;3.83;1.35;;;;;;;17.08;96.53;102171.97;5067583;28;20047;-71
2022/07/07 08:32:45;;;;;;;5.97;1.90;;;;;;;17.70;94.45;102188.56;5069052;28;20472;-79
2022/07/07 08:35:11;;;;;;;5.05;1.73;;;;;;;18.05;87.86;102176.00;5068090;28;20028;-79
2022/07/07 08:37:36;;;;;;;7.63;1.40;;;;;;;18.13;85.46;102177.47;5072815;28;20421;-79
2022/07/07 08:40:02;;;;;;;4.60;1.60;;;;;;;18.12;86.15;102186.31;5074563;28;20074;-78
2022/07/07 08:42:27;;;;;;;9.40;1.73;;;;;;;17.88;84.53;102187.97;5070136;28;20062;-78
2022/07/07 08:44:53;;;;;;;4.95;1.35;;;;;;;17.34;88.06;102194.06;5083423;28;20111;-76
2022/07/07 08:47:18;;;;;;;5.60;1.70;;;;;;;17.07;85.91;102188.69;5073682;28;20491;-76
2022/07/07 08:49:43;;;;;;;6.72;1.50;;;;;;;17.07;87.01;102193.97;5068257;28;20028;-76
2022/07/07 08:52:09;;;;;;;6.07;1.30;;;;;;;17.31;86.87;102196.78;5079160;28;20024;-75
2022/07/07 08:54:39;;;;;;;7.43;1.80;;;;;;;17.66;86.79;102176.38;5072175;28;20042;-75
2022/07/07 08:57:05;;;;;;;5.38;1.45;;;;;;;18.20;nan;102184.25;5073240;28;20032;-76
2022/07/07 08:59:31;;;;;;;5.10;1.33;;;;;;;18.69;83.06;102185.19;5071413;28;20020;-76
2022/07/07 09:01:59;;;;;;;9.98;1.63;;;;;;;19.04;78.70;102192.78;5067862;28;20020;-76
2022/07/07 09:04:25;;;;;;;7.32;1.35;;;;;;;19.15;80.03;102196.72;5087898;28;20025;-77
2022/07/07 09:07:01;;;;;;;13.77;2.95;;;;;;;19.02;77.66;102218.38;5072710;28;20035;-78
2022/07/07 09:09:35;;;;;;;7.57;2.00;;;;;;;18.69;80.85;102201.03;5060752;28;20029;-77
2022/07/07 09:12:02;;;;;;;8.25;1.52;;;;;;;18.40;79.69;102209.97;5069065;28;20037;-75
2022/07/07 09:14:35;;;;;;;5.38;1.40;;;;;;;17.87;80.29;102212.63;5061419;28;20124;-76
2022/07/07 09:17:01;;;;;;;6.38;1.58;;;;;;;17.88;82.36;102209.06;5060679;28;20143;-78
2022/07/07 09:19:26;;;;;;;5.95;1.20;;;;;;;18.32;82.42;102214.66;5070543;28;20111;-78
2022/07/07 09:21:51;;;;;;;6.25;1.25;;;;;;;18.74;81.01;102210.59;5071134;28;20587;-76
2022/07/07 09:24:17;;;;;;;6.53;1.23;;;;;;;19.15;80.20;102212.56;5069558;28;21361;-72
2022/07/07 09:26:50;;;;;;;6.30;1.42;;;;;;;19.09;77.37;102217.22;5065799;28;20025;-72
2022/07/07 09:29:20;;;;;;;4.30;1.25;;;;;;;19.10;74.33;102221.63;5072277;28;20158;-72
2022/07/07 09:32:05;;;;;;;5.07;1.55;;;;;;;19.84;77.37;102228.44;5072796;28;20073;-72
2022/07/07 09:34:32;;;;;;;4.15;1.50;;;;;;;19.96;71.53;102227.09;5070011;28;20024;-72
2022/07/07 09:39:49;;;;;;;2.95;1.10;;;;;;;19.94;72.50;102228.91;5063924;28;20067;-76
2022/07/07 09:42:27;;;;;;;5.13;1.10;;;;;;;19.80;70.86;102236.56;5057494;28;20017;-76
2022/07/07 09:45:05;;;;;;;3.92;1.55;;;;;;;19.75;73.09;102242.06;5065426;28;20036;-76
2022/07/07 09:47:34;;;;;;;3.10;1.10;;;;;;;19.86;70.17;102246.91;5063993;28;20033;-76
2022/07/07 09:50:04;;;;;;;4.50;1.30;;;;;;;20.09;70.47;102251.28;5060556;28;20107;-76
2022/07/07 09:52:32;;;;;;;3.72;1.27;;;;;;;19.76;71.60;102254.34;5068105;28;20032;-76
2022/07/07 09:54:58;;;;;;;5.80;1.52;;;;;;;19.31;72.84;102256.97;5071962;28;20481;-76
2022/07/07 09:57:24;;;;;;;4.03;1.00;;;;;;;18.98;73.50;102264.34;5069162;28;20044;-76
2022/07/07 09:59:50;;;;;;;2.38;1.10;;;;;;;18.62;76.44;102275.25;5070337;28;20031;-75
2022/07/07 10:02:27;;;;;;;2.38;0.80;;;;;;;17.92;77.04;102289.88;5069836;28;20039;-76
2022/07/07 10:04:55;;;;;;;4.45;0.90;;;;;;;17.44;82.97;102295.69;5060718;28;20381;-75
2022/07/07 10:07:23;;;;;;;5.13;1.33;;;;;;;17.24;85.09;102300.66;5064775;28;20087;-76
2022/07/07 10:09:51;;;;;;;3.88;1.10;;;;;;;17.25;87.22;102303.25;5062079;28;20391;-76
2022/07/07 10:12:20;;;;;;;5.70;1.50;;;;;;;17.82;86.94;102291.06;5069583;28;20024;-76
2022/07/07 10:14:48;;;;;;;3.75;1.13;;;;;;;18.57;85.31;102295.69;5058565;28;20400;-76
2022/07/07 10:17:16;;;;;;;5.93;1.25;;;;;;;19.30;81.11;102297.53;5067703;28;20074;-76
2022/07/07 10:19:42;;;;;;;3.42;1.08;;;;;;;19.69;78.19;102292.56;5068613;28;20051;-76
2022/07/07 10:22:08;;;;;;;5.47;1.45;;;;;;;19.84;77.82;102297.22;5068969;28;20198;-77
2022/07/07 10:24:35;;;;;;;4.18;1.05;;;;;;;19.73;73.98;102304.75;5066615;28;20031;-76
2022/07/07 10:27:02;;;;;;;2.92;1.20;;;;;;;19.49;74.92;102305.63;5070391;28;20063;-76
2022/07/07 10:29:36;;;;;;;3.80;1.20;;;;;;;19.33;75.36;102308.88;5073780;28;20383;-75
2022/07/07 10:32:01;;;;;;;;;;;;;;;19.25;76.32;102308.28;5068944;28;20591;-75
2022/07/07 10:34:28;;;;;;;5.47;1.00;;;;;;;18.87;76.73;102317.59;5072326;28;20007;-75
2022/07/07 10:37:02;;;;;;;4.28;1.23;;;;;;;18.87;78.55;102331.66;5066463;28;20303;-75
2022/07/07 10:39:32;;;;;;;3.42;1.13;;;;;;;18.95;78.05;102321.66;5058102;28;20079;-76
2022/07/07 10:42:07;;;;;;;5.57;0.98;;;;;;;19.49;77.28;102326.78;5066874;28;20103;-76
2022/07/07 10:44:35;;;;;;;2.22;0.80;;;;;;;20.23;73.12;102311.59;5064537;28;20480;-76
2022/07/07 10:47:05;;;;;;;3.10;0.98;;;;;;;20.47;69.70;102325.59;5069322;28;20060;-76
2022/07/07 10:49:48;;;;;;;2.92;1.05;;;;;;;20.57;70.41;102330.50;5068269;28;20028;-76
2022/07/07 10:52:16;;;;;;;2.28;1.10;;;;;;;20.28;70.02;102329.03;5065903;28;20125;-76
2022/07/07 10:54:53;;;;;;;3.78;1.00;;;;;;;19.98;69.08;102331.13;5070690;28;20495;-76
2022/07/07 10:57:23;;;;;;;5.28;1.30;;;;;;;19.36;74.22;102342.28;5064209;28;20059;-76
2022/07/07 11:00:04;;;;;;;4.88;1.10;;;;;;;18.42;78.30;102348.09;5071100;28;20052;-76
2022/07/07 11:02:48;;;;;;;3.92;1.20;;;;;;;17.62;82.16;102365.44;5069884;28;20495;-76
2022/07/07 11:05:13;;;;;;;4.38;1.13;;;;;;;17.35;86.80;102376.78;5067750;28;20032;-76
2022/07/07 11:07:59;;;;;;;2.67;0.95;;;;;;;17.44;85.49;102366.84;5062307;28;20491;-76
2022/07/07 11:10:36;;;;;;;2.92;1.15;;;;;;;17.98;85.16;102367.94;5068401;28;20039;-76
2022/07/07 11:13:21;;;;;;;4.72;1.25;;;;;;;18.69;82.67;102363.94;5068482;28;20038;-76
2022/07/07 11:15:49;;;;;;;4.65;1.40;;;;;;;19.44;80.96;102363.13;5067063;28;20052;-76
2022/07/07 11:18:16;;;;;;;6.47;1.77;;;;;;;20.15;76.14;102370.16;5071455;28;20388;-76
2022/07/07 11:20:52;;;;;;;4.65;1.88;;;;;;;20.65;72.29;102375.22;5063042;28;20028;-76